Terminal Aerodrome Forecast
Issued by NWS

Home | Current Version | Previous Version | Text Only | Print | Product List | Glossary On
Versions: 1 2 3 4 5 6 7 8 9 10 11 12 13
000
FTUS45 KABQ 021100
TAFTCC
TAF
KTCC 021120Z 0212/0312 03010KT P6SM FEW006
      TEMPO 0212/0216 4SM BR BKN006
     FM022000 12007KT P6SM SKC
     FM030000 18010KT P6SM FEW100=

USA.gov is the U.S. government's official web portal to all federal, state and local government web resources and services.